Weather at Tejgaon Airport

Public forecast

Using degrees Celsius for public forecast. Weather courtesy of forecast.io.

Closest aviation weather report (METAR) to Tejgaon Airport

Closest report is Hazrat Shahjalal International Airport, 4.0 nm (7.3 km) NNE. Retrieved 2021/01/23 00:30 UTC (0 seconds ago):

VGHS 230030Z 31004KT 0050 FG OVC001 15/14 Q1013 NOSIG

Closest aviation forecast (TAF) to Tejgaon Airport

Closest forecast is Hazrat Shahjalal International Airport, 4.0 nm (7.3 km) NNE. Retrieved 2021-01-23 00:00 UTC (19 minutes ago):

TAF VGHS 222300Z 2300/2406 00000KT 1000 MIFG FEW008 TEMPO 2300/2304 00000KT 0500 FG BKN003 BECMG 2305/2307 36006KT 1500 BR FEW010 BECMG 2310/2312 3000 HZ NSC BECMG 2318/2320 VRB03KT 1800 BR FEW012 BECMG 2321/2323 00000KT 1200 BR FEW010 TEMPO 2322/2403 00000KT 0800 FG BKN004